<?xml version="1.0" encoding="UTF-8" standalone="no" ?>
<gpx xmlns="http://www.topografix.com/GPX/1/1" xmlns:xsi="http://www.w3.org/2001/XMLSchema-instance" xsi:schemaLocation="http://www.topografix.com/GPX/1/1 http://www.topografix.com/GPX/1/1/gpx.xsd" version="1.1" creator="VisuGPX - https://www.visugpx.com">
  <metadata>
    <name>Le Plo del Naou depuis le col d'Aspin</name>
  </metadata>
  <trk>
    <name><![CDATA[Le Plo del Naou depuis le col d'Aspin]]></name>
    <trkseg>
      <trkpt lat="42.94183" lon="0.32713">
        <ele>1548</ele>
        <time>2022-04-17T15:20:03+02:00</time>
      </trkpt>
      <trkpt lat="42.9418" lon="0.32707">
        <ele>1549</ele>
        <time>2022-04-17T15:20:51+02:00</time>
      </trkpt>
      <trkpt lat="42.94161" lon="0.3269">
        <ele>1553</ele>
        <time>2022-04-17T15:21:16+02:00</time>
      </trkpt>
      <trkpt lat="42.94142" lon="0.32671">
        <ele>1554</ele>
        <time>2022-04-17T15:21:40+02:00</time>
      </trkpt>
      <trkpt lat="42.94126" lon="0.3265">
        <ele>1559</ele>
        <time>2022-04-17T15:22:01+02:00</time>
      </trkpt>
      <trkpt lat="42.94121" lon="0.32619">
        <ele>1561</ele>
        <time>2022-04-17T15:22:26+02:00</time>
      </trkpt>
      <trkpt lat="42.94107" lon="0.32595">
        <ele>1566</ele>
        <time>2022-04-17T15:22:51+02:00</time>
      </trkpt>
      <trkpt lat="42.94095" lon="0.32568">
        <ele>1571</ele>
        <time>2022-04-17T15:23:17+02:00</time>
      </trkpt>
      <trkpt lat="42.94082" lon="0.32542">
        <ele>1575</ele>
        <time>2022-04-17T15:23:41+02:00</time>
      </trkpt>
      <trkpt lat="42.94074" lon="0.32513">
        <ele>1578</ele>
        <time>2022-04-17T15:24:08+02:00</time>
      </trkpt>
      <trkpt lat="42.94067" lon="0.32483">
        <ele>1582</ele>
        <time>2022-04-17T15:24:33+02:00</time>
      </trkpt>
      <trkpt lat="42.94058" lon="0.32455">
        <ele>1587</ele>
        <time>2022-04-17T15:24:59+02:00</time>
      </trkpt>
      <trkpt lat="42.94046" lon="0.32428">
        <ele>1597</ele>
        <time>2022-04-17T15:25:35+02:00</time>
      </trkpt>
      <trkpt lat="42.94036" lon="0.324">
        <ele>1605</ele>
        <time>2022-04-17T15:26:04+02:00</time>
      </trkpt>
      <trkpt lat="42.94019" lon="0.32379">
        <ele>1614</ele>
        <time>2022-04-17T15:26:41+02:00</time>
      </trkpt>
      <trkpt lat="42.93996" lon="0.32372">
        <ele>1620</ele>
        <time>2022-04-17T15:27:09+02:00</time>
      </trkpt>
      <trkpt lat="42.93974" lon="0.32377">
        <ele>1628</ele>
        <time>2022-04-17T15:28:35+02:00</time>
      </trkpt>
      <trkpt lat="42.93951" lon="0.32371">
        <ele>1633</ele>
        <time>2022-04-17T15:28:57+02:00</time>
      </trkpt>
      <trkpt lat="42.93928" lon="0.32366">
        <ele>1638</ele>
        <time>2022-04-17T15:29:20+02:00</time>
      </trkpt>
      <trkpt lat="42.93906" lon="0.32361">
        <ele>1639</ele>
        <time>2022-04-17T15:29:41+02:00</time>
      </trkpt>
      <trkpt lat="42.93882" lon="0.32359">
        <ele>1640</ele>
        <time>2022-04-17T15:30:02+02:00</time>
      </trkpt>
      <trkpt lat="42.9386" lon="0.32349">
        <ele>1647</ele>
        <time>2022-04-17T15:30:23+02:00</time>
      </trkpt>
      <trkpt lat="42.93839" lon="0.32337">
        <ele>1650</ele>
        <time>2022-04-17T15:30:42+02:00</time>
      </trkpt>
      <trkpt lat="42.93819" lon="0.32322">
        <ele>1650</ele>
        <time>2022-04-17T15:31:03+02:00</time>
      </trkpt>
      <trkpt lat="42.938" lon="0.32307">
        <ele>1650</ele>
        <time>2022-04-17T15:31:23+02:00</time>
      </trkpt>
      <trkpt lat="42.93778" lon="0.32296">
        <ele>1650</ele>
        <time>2022-04-17T15:31:42+02:00</time>
      </trkpt>
      <trkpt lat="42.93756" lon="0.32284">
        <ele>1650</ele>
        <time>2022-04-17T15:32:02+02:00</time>
      </trkpt>
      <trkpt lat="42.93734" lon="0.32274">
        <ele>1649</ele>
        <time>2022-04-17T15:32:39+02:00</time>
      </trkpt>
      <trkpt lat="42.93711" lon="0.32275">
        <ele>1651</ele>
        <time>2022-04-17T15:32:59+02:00</time>
      </trkpt>
      <trkpt lat="42.93688" lon="0.32277">
        <ele>1646</ele>
        <time>2022-04-17T15:33:20+02:00</time>
      </trkpt>
      <trkpt lat="42.93665" lon="0.32281">
        <ele>1644</ele>
        <time>2022-04-17T15:33:40+02:00</time>
      </trkpt>
      <trkpt lat="42.93642" lon="0.32284">
        <ele>1649</ele>
        <time>2022-04-17T15:33:56+02:00</time>
      </trkpt>
      <trkpt lat="42.93618" lon="0.32283">
        <ele>1649</ele>
        <time>2022-04-17T15:34:13+02:00</time>
      </trkpt>
      <trkpt lat="42.93595" lon="0.32287">
        <ele>1648</ele>
        <time>2022-04-17T15:34:30+02:00</time>
      </trkpt>
      <trkpt lat="42.93571" lon="0.32283">
        <ele>1647</ele>
        <time>2022-04-17T15:34:48+02:00</time>
      </trkpt>
      <trkpt lat="42.9355" lon="0.32274">
        <ele>1653</ele>
        <time>2022-04-17T15:35:05+02:00</time>
      </trkpt>
      <trkpt lat="42.9353" lon="0.32258">
        <ele>1660</ele>
        <time>2022-04-17T15:35:23+02:00</time>
      </trkpt>
      <trkpt lat="42.93508" lon="0.32243">
        <ele>1654</ele>
        <time>2022-04-17T15:35:45+02:00</time>
      </trkpt>
      <trkpt lat="42.93487" lon="0.3223">
        <ele>1656</ele>
        <time>2022-04-17T15:36:02+02:00</time>
      </trkpt>
      <trkpt lat="42.93466" lon="0.32217">
        <ele>1663</ele>
        <time>2022-04-17T15:36:20+02:00</time>
      </trkpt>
      <trkpt lat="42.93447" lon="0.32201">
        <ele>1667</ele>
        <time>2022-04-17T15:36:41+02:00</time>
      </trkpt>
      <trkpt lat="42.93428" lon="0.32182">
        <ele>1664</ele>
        <time>2022-04-17T15:36:59+02:00</time>
      </trkpt>
      <trkpt lat="42.93408" lon="0.32164">
        <ele>1659</ele>
        <time>2022-04-17T15:37:17+02:00</time>
      </trkpt>
      <trkpt lat="42.9339" lon="0.32145">
        <ele>1667</ele>
        <time>2022-04-17T15:37:33+02:00</time>
      </trkpt>
      <trkpt lat="42.93373" lon="0.32124">
        <ele>1664</ele>
        <time>2022-04-17T15:37:55+02:00</time>
      </trkpt>
      <trkpt lat="42.93359" lon="0.321">
        <ele>1668</ele>
        <time>2022-04-17T15:38:12+02:00</time>
      </trkpt>
      <trkpt lat="42.93342" lon="0.32079">
        <ele>1665</ele>
        <time>2022-04-17T15:38:30+02:00</time>
      </trkpt>
      <trkpt lat="42.93324" lon="0.3206">
        <ele>1666</ele>
        <time>2022-04-17T15:38:46+02:00</time>
      </trkpt>
      <trkpt lat="42.93308" lon="0.32037">
        <ele>1663</ele>
        <time>2022-04-17T15:39:15+02:00</time>
      </trkpt>
      <trkpt lat="42.93297" lon="0.32008">
        <ele>1661</ele>
        <time>2022-04-17T15:39:37+02:00</time>
      </trkpt>
      <trkpt lat="42.93286" lon="0.31981">
        <ele>1659</ele>
        <time>2022-04-17T15:39:58+02:00</time>
      </trkpt>
      <trkpt lat="42.93279" lon="0.3195">
        <ele>1660</ele>
        <time>2022-04-17T15:40:18+02:00</time>
      </trkpt>
      <trkpt lat="42.93272" lon="0.3192">
        <ele>1659</ele>
        <time>2022-04-17T15:40:38+02:00</time>
      </trkpt>
      <trkpt lat="42.93265" lon="0.3189">
        <ele>1657</ele>
        <time>2022-04-17T15:40:57+02:00</time>
      </trkpt>
      <trkpt lat="42.9325" lon="0.31866">
        <ele>1653</ele>
        <time>2022-04-17T15:41:23+02:00</time>
      </trkpt>
      <trkpt lat="42.93228" lon="0.3186">
        <ele>1653</ele>
        <time>2022-04-17T15:41:43+02:00</time>
      </trkpt>
      <trkpt lat="42.93207" lon="0.31874">
        <ele>1653</ele>
        <time>2022-04-17T15:42:05+02:00</time>
      </trkpt>
      <trkpt lat="42.93185" lon="0.31883">
        <ele>1650</ele>
        <time>2022-04-17T15:42:25+02:00</time>
      </trkpt>
      <trkpt lat="42.93163" lon="0.31891">
        <ele>1646</ele>
        <time>2022-04-17T15:42:42+02:00</time>
      </trkpt>
      <trkpt lat="42.9314" lon="0.31897">
        <ele>1646</ele>
        <time>2022-04-17T15:43:01+02:00</time>
      </trkpt>
      <trkpt lat="42.93118" lon="0.31904">
        <ele>1646</ele>
        <time>2022-04-17T15:43:19+02:00</time>
      </trkpt>
      <trkpt lat="42.93094" lon="0.31904">
        <ele>1644</ele>
        <time>2022-04-17T15:43:47+02:00</time>
      </trkpt>
      <trkpt lat="42.93071" lon="0.31908">
        <ele>1644</ele>
        <time>2022-04-17T15:44:06+02:00</time>
      </trkpt>
      <trkpt lat="42.93049" lon="0.31906">
        <ele>1641</ele>
        <time>2022-04-17T15:44:25+02:00</time>
      </trkpt>
      <trkpt lat="42.93027" lon="0.31896">
        <ele>1642</ele>
        <time>2022-04-17T15:44:43+02:00</time>
      </trkpt>
      <trkpt lat="42.93006" lon="0.31886">
        <ele>1644</ele>
        <time>2022-04-17T15:45:06+02:00</time>
      </trkpt>
      <trkpt lat="42.92985" lon="0.31872">
        <ele>1648</ele>
        <time>2022-04-17T15:46:10+02:00</time>
      </trkpt>
      <trkpt lat="42.92966" lon="0.31855">
        <ele>1651</ele>
        <time>2022-04-17T15:46:32+02:00</time>
      </trkpt>
      <trkpt lat="42.92946" lon="0.3184">
        <ele>1651</ele>
        <time>2022-04-17T15:46:51+02:00</time>
      </trkpt>
      <trkpt lat="42.92926" lon="0.31822">
        <ele>1651</ele>
        <time>2022-04-17T15:47:06+02:00</time>
      </trkpt>
      <trkpt lat="42.92905" lon="0.3181">
        <ele>1648</ele>
        <time>2022-04-17T15:47:23+02:00</time>
      </trkpt>
      <trkpt lat="42.92889" lon="0.31787">
        <ele>1648</ele>
        <time>2022-04-17T15:47:43+02:00</time>
      </trkpt>
      <trkpt lat="42.92881" lon="0.31758">
        <ele>1646</ele>
        <time>2022-04-17T15:48:06+02:00</time>
      </trkpt>
      <trkpt lat="42.92865" lon="0.31735">
        <ele>1649</ele>
        <time>2022-04-17T15:48:23+02:00</time>
      </trkpt>
      <trkpt lat="42.92843" lon="0.31726">
        <ele>1647</ele>
        <time>2022-04-17T15:48:42+02:00</time>
      </trkpt>
      <trkpt lat="42.92821" lon="0.31721">
        <ele>1645</ele>
        <time>2022-04-17T15:48:58+02:00</time>
      </trkpt>
      <trkpt lat="42.92797" lon="0.31721">
        <ele>1649</ele>
        <time>2022-04-17T15:49:22+02:00</time>
      </trkpt>
      <trkpt lat="42.92774" lon="0.31717">
        <ele>1648</ele>
        <time>2022-04-17T15:49:39+02:00</time>
      </trkpt>
      <trkpt lat="42.92751" lon="0.31716">
        <ele>1648</ele>
        <time>2022-04-17T15:49:57+02:00</time>
      </trkpt>
      <trkpt lat="42.92728" lon="0.31717">
        <ele>1650</ele>
        <time>2022-04-17T15:50:14+02:00</time>
      </trkpt>
      <trkpt lat="42.92706" lon="0.3171">
        <ele>1650</ele>
        <time>2022-04-17T15:50:34+02:00</time>
      </trkpt>
      <trkpt lat="42.92685" lon="0.31697">
        <ele>1651</ele>
        <time>2022-04-17T15:50:52+02:00</time>
      </trkpt>
      <trkpt lat="42.92663" lon="0.31691">
        <ele>1660</ele>
        <time>2022-04-17T15:51:32+02:00</time>
      </trkpt>
      <trkpt lat="42.92641" lon="0.31681">
        <ele>1659</ele>
        <time>2022-04-17T15:51:59+02:00</time>
      </trkpt>
      <trkpt lat="42.92618" lon="0.31672">
        <ele>1663</ele>
        <time>2022-04-17T15:52:27+02:00</time>
      </trkpt>
      <trkpt lat="42.92597" lon="0.31659">
        <ele>1665</ele>
        <time>2022-04-17T15:52:48+02:00</time>
      </trkpt>
      <trkpt lat="42.92577" lon="0.31643">
        <ele>1670</ele>
        <time>2022-04-17T15:53:09+02:00</time>
      </trkpt>
      <trkpt lat="42.92557" lon="0.31628">
        <ele>1676</ele>
        <time>2022-04-17T15:53:38+02:00</time>
      </trkpt>
      <trkpt lat="42.92537" lon="0.31611">
        <ele>1679</ele>
        <time>2022-04-17T15:54:00+02:00</time>
      </trkpt>
      <trkpt lat="42.92519" lon="0.31592">
        <ele>1683</ele>
        <time>2022-04-17T15:54:22+02:00</time>
      </trkpt>
      <trkpt lat="42.92498" lon="0.31579">
        <ele>1686</ele>
        <time>2022-04-17T15:54:52+02:00</time>
      </trkpt>
      <trkpt lat="42.92481" lon="0.31558">
        <ele>1691</ele>
        <time>2022-04-17T15:55:27+02:00</time>
      </trkpt>
      <trkpt lat="42.92464" lon="0.31538">
        <ele>1690</ele>
        <time>2022-04-17T15:55:57+02:00</time>
      </trkpt>
      <trkpt lat="42.92445" lon="0.31518">
        <ele>1691</ele>
        <time>2022-04-17T15:56:19+02:00</time>
      </trkpt>
      <trkpt lat="42.92424" lon="0.31505">
        <ele>1697</ele>
        <time>2022-04-17T15:56:47+02:00</time>
      </trkpt>
      <trkpt lat="42.92402" lon="0.31499">
        <ele>1705</ele>
        <time>2022-04-17T15:57:50+02:00</time>
      </trkpt>
      <trkpt lat="42.9238" lon="0.31493">
        <ele>1713</ele>
        <time>2022-04-17T15:58:25+02:00</time>
      </trkpt>
      <trkpt lat="42.92359" lon="0.31508">
        <ele>1722</ele>
        <time>2022-04-17T15:59:14+02:00</time>
      </trkpt>
      <trkpt lat="42.92337" lon="0.315">
        <ele>1731</ele>
        <time>2022-04-17T16:00:12+02:00</time>
      </trkpt>
      <trkpt lat="42.92315" lon="0.31491">
        <ele>1738</ele>
        <time>2022-04-17T16:00:52+02:00</time>
      </trkpt>
      <trkpt lat="42.92292" lon="0.31484">
        <ele>1744</ele>
        <time>2022-04-17T16:01:25+02:00</time>
      </trkpt>
      <trkpt lat="42.92271" lon="0.31474">
        <ele>1747</ele>
        <time>2022-04-17T16:01:55+02:00</time>
      </trkpt>
      <trkpt lat="42.9225" lon="0.31463">
        <ele>1752</ele>
        <time>2022-04-17T16:04:29+02:00</time>
      </trkpt>
      <trkpt lat="42.9223" lon="0.31447">
        <ele>1757</ele>
        <time>2022-04-17T16:04:57+02:00</time>
      </trkpt>
      <trkpt lat="42.92215" lon="0.31425">
        <ele>1764</ele>
        <time>2022-04-17T16:05:26+02:00</time>
      </trkpt>
      <trkpt lat="42.92198" lon="0.31404">
        <ele>1771</ele>
        <time>2022-04-17T16:06:15+02:00</time>
      </trkpt>
      <trkpt lat="42.92176" lon="0.31412">
        <ele>1778</ele>
        <time>2022-04-17T16:06:59+02:00</time>
      </trkpt>
      <trkpt lat="42.92154" lon="0.31406">
        <ele>1783</ele>
        <time>2022-04-17T16:07:37+02:00</time>
      </trkpt>
      <trkpt lat="42.92132" lon="0.31397">
        <ele>1787</ele>
        <time>2022-04-17T16:08:03+02:00</time>
      </trkpt>
      <trkpt lat="42.9211" lon="0.31392">
        <ele>1789</ele>
        <time>2022-04-17T16:08:25+02:00</time>
      </trkpt>
      <trkpt lat="42.92088" lon="0.31382">
        <ele>1793</ele>
        <time>2022-04-17T16:08:48+02:00</time>
      </trkpt>
      <trkpt lat="42.92066" lon="0.31373">
        <ele>1797</ele>
        <time>2022-04-17T16:09:11+02:00</time>
      </trkpt>
      <trkpt lat="42.92044" lon="0.31364">
        <ele>1800</ele>
        <time>2022-04-17T16:09:39+02:00</time>
      </trkpt>
      <trkpt lat="42.92021" lon="0.31362">
        <ele>1803</ele>
        <time>2022-04-17T16:10:03+02:00</time>
      </trkpt>
      <trkpt lat="42.91999" lon="0.31368">
        <ele>1808</ele>
        <time>2022-04-17T16:10:37+02:00</time>
      </trkpt>
      <trkpt lat="42.91977" lon="0.31365">
        <ele>1806</ele>
        <time>2022-04-17T16:11:30+02:00</time>
      </trkpt>
      <trkpt lat="42.91953" lon="0.31361">
        <ele>1807</ele>
        <time>2022-04-17T16:11:54+02:00</time>
      </trkpt>
      <trkpt lat="42.91931" lon="0.31359">
        <ele>1811</ele>
        <time>2022-04-17T16:21:10+02:00</time>
      </trkpt>
      <trkpt lat="42.91954" lon="0.31359">
        <ele>1811</ele>
        <time>2022-04-17T16:25:01+02:00</time>
      </trkpt>
      <trkpt lat="42.91976" lon="0.31363">
        <ele>1810</ele>
        <time>2022-04-17T16:25:21+02:00</time>
      </trkpt>
      <trkpt lat="42.91999" lon="0.31365">
        <ele>1810</ele>
        <time>2022-04-17T16:25:43+02:00</time>
      </trkpt>
      <trkpt lat="42.92022" lon="0.31362">
        <ele>1806</ele>
        <time>2022-04-17T16:26:07+02:00</time>
      </trkpt>
      <trkpt lat="42.92045" lon="0.31364">
        <ele>1802</ele>
        <time>2022-04-17T16:26:30+02:00</time>
      </trkpt>
      <trkpt lat="42.92067" lon="0.31372">
        <ele>1800</ele>
        <time>2022-04-17T16:26:54+02:00</time>
      </trkpt>
      <trkpt lat="42.92089" lon="0.31381">
        <ele>1796</ele>
        <time>2022-04-17T16:27:17+02:00</time>
      </trkpt>
      <trkpt lat="42.92111" lon="0.31391">
        <ele>1793</ele>
        <time>2022-04-17T16:27:41+02:00</time>
      </trkpt>
      <trkpt lat="42.92134" lon="0.31399">
        <ele>1790</ele>
        <time>2022-04-17T16:28:06+02:00</time>
      </trkpt>
      <trkpt lat="42.92156" lon="0.31407">
        <ele>1787</ele>
        <time>2022-04-17T16:28:31+02:00</time>
      </trkpt>
      <trkpt lat="42.92179" lon="0.31413">
        <ele>1783</ele>
        <time>2022-04-17T16:28:57+02:00</time>
      </trkpt>
      <trkpt lat="42.92201" lon="0.31419">
        <ele>1776</ele>
        <time>2022-04-17T16:29:34+02:00</time>
      </trkpt>
      <trkpt lat="42.92218" lon="0.31439">
        <ele>1766</ele>
        <time>2022-04-17T16:30:53+02:00</time>
      </trkpt>
      <trkpt lat="42.92237" lon="0.31457">
        <ele>1761</ele>
        <time>2022-04-17T16:31:22+02:00</time>
      </trkpt>
      <trkpt lat="42.92258" lon="0.31472">
        <ele>1757</ele>
        <time>2022-04-17T16:31:53+02:00</time>
      </trkpt>
      <trkpt lat="42.92281" lon="0.31477">
        <ele>1753</ele>
        <time>2022-04-17T16:32:19+02:00</time>
      </trkpt>
      <trkpt lat="42.92301" lon="0.31492">
        <ele>1747</ele>
        <time>2022-04-17T16:32:50+02:00</time>
      </trkpt>
      <trkpt lat="42.92324" lon="0.31498">
        <ele>1741</ele>
        <time>2022-04-17T16:33:26+02:00</time>
      </trkpt>
      <trkpt lat="42.92347" lon="0.31502">
        <ele>1733</ele>
        <time>2022-04-17T16:34:11+02:00</time>
      </trkpt>
      <trkpt lat="42.92368" lon="0.31492">
        <ele>1723</ele>
        <time>2022-04-17T16:34:53+02:00</time>
      </trkpt>
      <trkpt lat="42.92391" lon="0.31499">
        <ele>1714</ele>
        <time>2022-04-17T16:35:32+02:00</time>
      </trkpt>
      <trkpt lat="42.92413" lon="0.31504">
        <ele>1707</ele>
        <time>2022-04-17T16:36:07+02:00</time>
      </trkpt>
      <trkpt lat="42.92434" lon="0.31517">
        <ele>1701</ele>
        <time>2022-04-17T16:36:36+02:00</time>
      </trkpt>
      <trkpt lat="42.92455" lon="0.31529">
        <ele>1700</ele>
        <time>2022-04-17T16:36:58+02:00</time>
      </trkpt>
      <trkpt lat="42.92472" lon="0.3155">
        <ele>1701</ele>
        <time>2022-04-17T16:37:25+02:00</time>
      </trkpt>
      <trkpt lat="42.92489" lon="0.31571">
        <ele>1695</ele>
        <time>2022-04-17T16:38:07+02:00</time>
      </trkpt>
      <trkpt lat="42.92509" lon="0.31587">
        <ele>1689</ele>
        <time>2022-04-17T16:38:40+02:00</time>
      </trkpt>
      <trkpt lat="42.92528" lon="0.31604">
        <ele>1685</ele>
        <time>2022-04-17T16:39:06+02:00</time>
      </trkpt>
      <trkpt lat="42.92548" lon="0.31619">
        <ele>1682</ele>
        <time>2022-04-17T16:39:30+02:00</time>
      </trkpt>
      <trkpt lat="42.92566" lon="0.31637">
        <ele>1678</ele>
        <time>2022-04-17T16:40:20+02:00</time>
      </trkpt>
      <trkpt lat="42.92588" lon="0.3165">
        <ele>1671</ele>
        <time>2022-04-17T16:40:48+02:00</time>
      </trkpt>
      <trkpt lat="42.92606" lon="0.31667">
        <ele>1670</ele>
        <time>2022-04-17T16:41:12+02:00</time>
      </trkpt>
      <trkpt lat="42.92628" lon="0.31676">
        <ele>1663</ele>
        <time>2022-04-17T16:41:41+02:00</time>
      </trkpt>
      <trkpt lat="42.9265" lon="0.31684">
        <ele>1663</ele>
        <time>2022-04-17T16:42:02+02:00</time>
      </trkpt>
      <trkpt lat="42.92671" lon="0.31694">
        <ele>1657</ele>
        <time>2022-04-17T16:42:42+02:00</time>
      </trkpt>
      <trkpt lat="42.92693" lon="0.31706">
        <ele>1656</ele>
        <time>2022-04-17T16:43:04+02:00</time>
      </trkpt>
      <trkpt lat="42.92715" lon="0.31716">
        <ele>1655</ele>
        <time>2022-04-17T16:43:23+02:00</time>
      </trkpt>
      <trkpt lat="42.92738" lon="0.31717">
        <ele>1655</ele>
        <time>2022-04-17T16:43:45+02:00</time>
      </trkpt>
      <trkpt lat="42.92761" lon="0.31716">
        <ele>1651</ele>
        <time>2022-04-17T16:44:04+02:00</time>
      </trkpt>
      <trkpt lat="42.92783" lon="0.31722">
        <ele>1653</ele>
        <time>2022-04-17T16:44:23+02:00</time>
      </trkpt>
      <trkpt lat="42.92805" lon="0.31727">
        <ele>1652</ele>
        <time>2022-04-17T16:44:43+02:00</time>
      </trkpt>
      <trkpt lat="42.92828" lon="0.31728">
        <ele>1654</ele>
        <time>2022-04-17T16:45:05+02:00</time>
      </trkpt>
      <trkpt lat="42.92851" lon="0.31728">
        <ele>1648</ele>
        <time>2022-04-17T16:45:22+02:00</time>
      </trkpt>
      <trkpt lat="42.92871" lon="0.31744">
        <ele>1648</ele>
        <time>2022-04-17T16:45:44+02:00</time>
      </trkpt>
      <trkpt lat="42.92887" lon="0.31767">
        <ele>1653</ele>
        <time>2022-04-17T16:46:16+02:00</time>
      </trkpt>
      <trkpt lat="42.92895" lon="0.31796">
        <ele>1654</ele>
        <time>2022-04-17T16:46:37+02:00</time>
      </trkpt>
      <trkpt lat="42.92912" lon="0.31818">
        <ele>1654</ele>
        <time>2022-04-17T16:47:02+02:00</time>
      </trkpt>
      <trkpt lat="42.92932" lon="0.31831">
        <ele>1653</ele>
        <time>2022-04-17T16:47:21+02:00</time>
      </trkpt>
      <trkpt lat="42.92954" lon="0.31845">
        <ele>1657</ele>
        <time>2022-04-17T16:47:41+02:00</time>
      </trkpt>
      <trkpt lat="42.92973" lon="0.31863">
        <ele>1655</ele>
        <time>2022-04-17T16:48:02+02:00</time>
      </trkpt>
      <trkpt lat="42.92993" lon="0.31877">
        <ele>1653</ele>
        <time>2022-04-17T16:48:18+02:00</time>
      </trkpt>
      <trkpt lat="42.93015" lon="0.3189">
        <ele>1650</ele>
        <time>2022-04-17T16:48:37+02:00</time>
      </trkpt>
      <trkpt lat="42.93036" lon="0.31903">
        <ele>1646</ele>
        <time>2022-04-17T16:48:55+02:00</time>
      </trkpt>
      <trkpt lat="42.93058" lon="0.31909">
        <ele>1646</ele>
        <time>2022-04-17T16:49:16+02:00</time>
      </trkpt>
      <trkpt lat="42.93081" lon="0.31907">
        <ele>1647</ele>
        <time>2022-04-17T16:49:38+02:00</time>
      </trkpt>
      <trkpt lat="42.93104" lon="0.31904">
        <ele>1648</ele>
        <time>2022-04-17T16:49:58+02:00</time>
      </trkpt>
      <trkpt lat="42.93127" lon="0.31901">
        <ele>1650</ele>
        <time>2022-04-17T16:50:20+02:00</time>
      </trkpt>
      <trkpt lat="42.9315" lon="0.31895">
        <ele>1652</ele>
        <time>2022-04-17T16:50:40+02:00</time>
      </trkpt>
      <trkpt lat="42.93172" lon="0.31891">
        <ele>1654</ele>
        <time>2022-04-17T16:51:02+02:00</time>
      </trkpt>
      <trkpt lat="42.93194" lon="0.31881">
        <ele>1655</ele>
        <time>2022-04-17T16:51:25+02:00</time>
      </trkpt>
      <trkpt lat="42.93216" lon="0.31872">
        <ele>1659</ele>
        <time>2022-04-17T16:51:46+02:00</time>
      </trkpt>
      <trkpt lat="42.93237" lon="0.3186">
        <ele>1656</ele>
        <time>2022-04-17T16:52:06+02:00</time>
      </trkpt>
      <trkpt lat="42.93258" lon="0.31873">
        <ele>1658</ele>
        <time>2022-04-17T16:52:24+02:00</time>
      </trkpt>
      <trkpt lat="42.9327" lon="0.319">
        <ele>1654</ele>
        <time>2022-04-17T16:52:53+02:00</time>
      </trkpt>
      <trkpt lat="42.93277" lon="0.3193">
        <ele>1655</ele>
        <time>2022-04-17T16:53:15+02:00</time>
      </trkpt>
      <trkpt lat="42.93282" lon="0.31961">
        <ele>1656</ele>
        <time>2022-04-17T16:53:37+02:00</time>
      </trkpt>
      <trkpt lat="42.9329" lon="0.3199">
        <ele>1656</ele>
        <time>2022-04-17T16:54:00+02:00</time>
      </trkpt>
      <trkpt lat="42.93301" lon="0.32017">
        <ele>1660</ele>
        <time>2022-04-17T16:54:18+02:00</time>
      </trkpt>
      <trkpt lat="42.93314" lon="0.32044">
        <ele>1660</ele>
        <time>2022-04-17T16:54:39+02:00</time>
      </trkpt>
      <trkpt lat="42.93329" lon="0.32068">
        <ele>1664</ele>
        <time>2022-04-17T16:54:58+02:00</time>
      </trkpt>
      <trkpt lat="42.93348" lon="0.32084">
        <ele>1664</ele>
        <time>2022-04-17T16:55:20+02:00</time>
      </trkpt>
      <trkpt lat="42.93365" lon="0.32104">
        <ele>1662</ele>
        <time>2022-04-17T16:55:50+02:00</time>
      </trkpt>
      <trkpt lat="42.93384" lon="0.32122">
        <ele>1665</ele>
        <time>2022-04-17T16:56:08+02:00</time>
      </trkpt>
      <trkpt lat="42.93396" lon="0.3215">
        <ele>1667</ele>
        <time>2022-04-17T16:56:29+02:00</time>
      </trkpt>
      <trkpt lat="42.93414" lon="0.32169">
        <ele>1667</ele>
        <time>2022-04-17T16:56:49+02:00</time>
      </trkpt>
      <trkpt lat="42.93433" lon="0.32187">
        <ele>1665</ele>
        <time>2022-04-17T16:57:10+02:00</time>
      </trkpt>
      <trkpt lat="42.93452" lon="0.32203">
        <ele>1666</ele>
        <time>2022-04-17T16:57:30+02:00</time>
      </trkpt>
      <trkpt lat="42.93472" lon="0.32218">
        <ele>1664</ele>
        <time>2022-04-17T16:57:50+02:00</time>
      </trkpt>
      <trkpt lat="42.93494" lon="0.32225">
        <ele>1664</ele>
        <time>2022-04-17T16:58:09+02:00</time>
      </trkpt>
      <trkpt lat="42.93513" lon="0.32243">
        <ele>1658</ele>
        <time>2022-04-17T16:58:32+02:00</time>
      </trkpt>
      <trkpt lat="42.93534" lon="0.32257">
        <ele>1658</ele>
        <time>2022-04-17T16:58:50+02:00</time>
      </trkpt>
      <trkpt lat="42.93555" lon="0.3227">
        <ele>1659</ele>
        <time>2022-04-17T16:59:09+02:00</time>
      </trkpt>
      <trkpt lat="42.93576" lon="0.32282">
        <ele>1659</ele>
        <time>2022-04-17T16:59:28+02:00</time>
      </trkpt>
      <trkpt lat="42.93597" lon="0.32293">
        <ele>1657</ele>
        <time>2022-04-17T16:59:45+02:00</time>
      </trkpt>
      <trkpt lat="42.9362" lon="0.32291">
        <ele>1654</ele>
        <time>2022-04-17T17:00:07+02:00</time>
      </trkpt>
      <trkpt lat="42.93642" lon="0.32298">
        <ele>1645</ele>
        <time>2022-04-17T17:01:16+02:00</time>
      </trkpt>
      <trkpt lat="42.93665" lon="0.32294">
        <ele>1646</ele>
        <time>2022-04-17T17:01:34+02:00</time>
      </trkpt>
      <trkpt lat="42.93688" lon="0.32283">
        <ele>1650</ele>
        <time>2022-04-17T17:01:49+02:00</time>
      </trkpt>
      <trkpt lat="42.9371" lon="0.32278">
        <ele>1649</ele>
        <time>2022-04-17T17:02:09+02:00</time>
      </trkpt>
      <trkpt lat="42.93734" lon="0.32278">
        <ele>1647</ele>
        <time>2022-04-17T17:02:27+02:00</time>
      </trkpt>
      <trkpt lat="42.93756" lon="0.32286">
        <ele>1646</ele>
        <time>2022-04-17T17:02:48+02:00</time>
      </trkpt>
      <trkpt lat="42.93777" lon="0.32299">
        <ele>1646</ele>
        <time>2022-04-17T17:03:06+02:00</time>
      </trkpt>
      <trkpt lat="42.93799" lon="0.32306">
        <ele>1647</ele>
        <time>2022-04-17T17:03:26+02:00</time>
      </trkpt>
      <trkpt lat="42.93819" lon="0.32322">
        <ele>1642</ele>
        <time>2022-04-17T17:03:46+02:00</time>
      </trkpt>
      <trkpt lat="42.9384" lon="0.32336">
        <ele>1637</ele>
        <time>2022-04-17T17:04:12+02:00</time>
      </trkpt>
      <trkpt lat="42.9386" lon="0.32349">
        <ele>1637</ele>
        <time>2022-04-17T17:04:30+02:00</time>
      </trkpt>
      <trkpt lat="42.93882" lon="0.3236">
        <ele>1636</ele>
        <time>2022-04-17T17:04:50+02:00</time>
      </trkpt>
      <trkpt lat="42.93904" lon="0.32366">
        <ele>1636</ele>
        <time>2022-04-17T17:05:12+02:00</time>
      </trkpt>
      <trkpt lat="42.93928" lon="0.32367">
        <ele>1633</ele>
        <time>2022-04-17T17:05:34+02:00</time>
      </trkpt>
      <trkpt lat="42.9395" lon="0.3237">
        <ele>1627</ele>
        <time>2022-04-17T17:05:56+02:00</time>
      </trkpt>
      <trkpt lat="42.93973" lon="0.32375">
        <ele>1622</ele>
        <time>2022-04-17T17:06:20+02:00</time>
      </trkpt>
      <trkpt lat="42.93996" lon="0.32368">
        <ele>1623</ele>
        <time>2022-04-17T17:06:44+02:00</time>
      </trkpt>
      <trkpt lat="42.94019" lon="0.32371">
        <ele>1618</ele>
        <time>2022-04-17T17:07:07+02:00</time>
      </trkpt>
      <trkpt lat="42.94037" lon="0.32389">
        <ele>1609</ele>
        <time>2022-04-17T17:07:39+02:00</time>
      </trkpt>
      <trkpt lat="42.94049" lon="0.32416">
        <ele>1602</ele>
        <time>2022-04-17T17:08:07+02:00</time>
      </trkpt>
      <trkpt lat="42.94063" lon="0.32441">
        <ele>1598</ele>
        <time>2022-04-17T17:08:31+02:00</time>
      </trkpt>
      <trkpt lat="42.94072" lon="0.3247">
        <ele>1590</ele>
        <time>2022-04-17T17:08:54+02:00</time>
      </trkpt>
      <trkpt lat="42.94076" lon="0.32501">
        <ele>1584</ele>
        <time>2022-04-17T17:09:18+02:00</time>
      </trkpt>
      <trkpt lat="42.94083" lon="0.3253">
        <ele>1574</ele>
        <time>2022-04-17T17:09:42+02:00</time>
      </trkpt>
      <trkpt lat="42.94094" lon="0.32559">
        <ele>1567</ele>
        <time>2022-04-17T17:10:06+02:00</time>
      </trkpt>
      <trkpt lat="42.94107" lon="0.32585">
        <ele>1563</ele>
        <time>2022-04-17T17:10:31+02:00</time>
      </trkpt>
      <trkpt lat="42.9412" lon="0.3261">
        <ele>1558</ele>
        <time>2022-04-17T17:10:55+02:00</time>
      </trkpt>
      <trkpt lat="42.94126" lon="0.3264">
        <ele>1555</ele>
        <time>2022-04-17T17:11:18+02:00</time>
      </trkpt>
      <trkpt lat="42.94137" lon="0.32667">
        <ele>1551</ele>
        <time>2022-04-17T17:11:42+02:00</time>
      </trkpt>
      <trkpt lat="42.94156" lon="0.32685">
        <ele>1546</ele>
        <time>2022-04-17T17:12:06+02:00</time>
      </trkpt>
      <trkpt lat="42.94176" lon="0.327">
        <ele>1545</ele>
        <time>2022-04-17T17:13:05+02:00</time>
      </trkpt>
      <trkpt lat="42.94194" lon="0.32718">
        <ele>1541</ele>
        <time>2022-04-17T17:13:30+02:00</time>
      </trkpt>
    </trkseg>
  </trk>
</gpx>